createdAt,value
2017-05-27T00:02:44.471Z,22.76
2017-05-27T00:02:54.232Z,22.78
2017-05-27T00:03:54.168Z,22.81
2017-05-27T00:04:54.399Z,22.7
2017-05-27T00:05:54.331Z,22.75
2017-05-27T00:06:54.268Z,22.75
2017-05-27T00:07:54.204Z,22.8
2017-05-27T00:08:54.147Z,22.84
2017-05-27T00:09:54.083Z,22.81
2017-05-27T00:10:54.020Z,22.81
2017-05-27T00:11:53.955Z,22.84
2017-05-27T00:12:53.900Z,22.72
2017-05-27T00:13:53.830Z,22.84
2017-05-27T00:14:53.788Z,22.75
2017-05-27T00:15:53.405Z,22.8
2017-05-27T00:16:53.339Z,22.69
2017-05-27T00:17:53.279Z,22.76
2017-05-27T00:18:53.517Z,22.8
2017-05-27T00:19:53.463Z,22.7
2017-05-27T00:20:53.389Z,22.76
2017-05-27T00:21:53.325Z,22.75
2017-05-27T00:22:53.271Z,22.72
2017-05-27T00:23:53.207Z,22.78
2017-05-27T00:24:53.136Z,22.83
2017-05-27T00:25:53.072Z,22.84
2017-05-27T00:26:53.009Z,22.73
2017-05-27T00:27:52.950Z,22.75
2017-05-27T00:28:52.605Z,22.8
2017-05-27T00:29:52.526Z,22.73
2017-05-27T00:30:52.760Z,22.8
2017-05-27T00:31:52.695Z,22.75
2017-05-27T00:32:52.632Z,22.76
2017-05-27T00:33:52.573Z,22.75
2017-05-27T00:34:52.505Z,22.83
2017-05-27T00:35:52.444Z,22.75
2017-05-27T00:36:52.379Z,22.72
2017-05-27T00:37:52.324Z,22.88
2017-05-27T00:38:52.254Z,22.75
2017-05-27T00:39:52.191Z,22.8
2017-05-27T00:40:51.533Z,22.84
2017-05-27T00:41:52.066Z,22.75
2017-05-27T00:42:52.002Z,22.87
2017-05-27T00:43:51.946Z,22.84
2017-05-27T00:44:51.587Z,22.83
2017-05-27T00:45:51.811Z,22.75
2017-05-27T00:46:51.450Z,22.8
2017-05-27T00:47:51.686Z,22.76
2017-05-27T00:48:51.621Z,22.78
2017-05-27T00:49:51.561Z,22.81
2017-05-27T00:50:51.499Z,22.85
2017-05-27T00:51:51.436Z,22.76
2017-05-27T00:52:51.372Z,22.81
2017-05-27T00:53:51.311Z,22.72
2017-05-27T00:54:51.245Z,22.81
2017-05-27T00:55:51.181Z,22.8
2017-05-27T00:56:51.132Z,22.88
2017-05-27T00:57:50.756Z,22.8
2017-05-27T00:58:50.994Z,22.84
2017-05-27T00:59:50.932Z,22.84
2017-05-27T01:00:50.868Z,22.78
2017-05-27T01:01:50.808Z,22.83
2017-05-27T01:02:50.441Z,22.84
2017-05-27T01:03:50.382Z,22.84
2017-05-27T01:04:50.633Z,22.84
2017-05-27T01:05:50.552Z,22.72
2017-05-27T01:06:50.488Z,22.78
2017-05-27T01:07:50.133Z,22.83
2017-05-27T01:08:50.062Z,22.78
2017-05-27T01:09:50.303Z,22.83
2017-05-27T01:10:50.239Z,22.8
2017-05-27T01:11:50.175Z,22.81
2017-05-27T01:12:50.111Z,22.81
2017-05-27T01:13:50.049Z,22.78
2017-05-27T01:14:49.985Z,22.78
2017-05-27T01:15:49.921Z,22.83
2017-05-27T01:16:49.860Z,22.87
2017-05-27T01:17:49.799Z,22.81
2017-05-27T01:18:49.738Z,22.83
2017-05-27T01:19:49.671Z,22.84
2017-05-27T01:20:49.610Z,22.85
2017-05-27T01:21:49.547Z,22.85
2017-05-27T01:22:49.540Z,22.8
2017-05-27T01:23:49.471Z,22.81
2017-05-27T01:24:49.057Z,22.81
2017-05-27T01:25:49.307Z,22.83
2017-05-27T01:26:49.234Z,22.84
2017-05-27T01:27:49.167Z,22.85
2017-05-27T01:28:49.106Z,22.84
2017-05-27T01:29:49.045Z,22.8
2017-05-27T01:30:48.982Z,22.85
2017-05-27T01:31:48.616Z,22.87
2017-05-27T01:32:48.852Z,22.81
2017-05-27T01:33:48.793Z,22.83
2017-05-27T01:34:48.731Z,22.83
2017-05-27T01:35:48.667Z,22.83
2017-05-27T01:36:48.599Z,22.78
2017-05-27T01:37:48.538Z,22.78
2017-05-27T01:38:48.182Z,22.84
2017-05-27T01:39:48.411Z,22.81
2017-05-27T01:40:48.362Z,22.81
2017-05-27T01:41:48.286Z,22.8
2017-05-27T01:42:48.228Z,22.87
2017-05-27T01:43:48.159Z,22.81
2017-05-27T01:44:48.098Z,22.83
2017-05-27T01:45:48.037Z,22.85
2017-05-27T01:46:47.973Z,22.81
2017-05-27T01:47:47.912Z,22.81
2017-05-27T01:48:47.554Z,22.84
2017-05-27T01:49:47.783Z,22.75
2017-05-27T01:50:47.718Z,22.81
2017-05-27T01:51:47.655Z,22.84
2017-05-27T01:52:47.592Z,22.76
2017-05-27T01:53:47.532Z,22.85
2017-05-27T01:54:47.466Z,22.84
2017-05-27T01:55:47.404Z,22.83
2017-05-27T01:56:47.343Z,22.84
2017-05-27T01:57:47.278Z,22.81
2017-05-27T01:58:47.218Z,22.8
2017-05-27T01:59:47.152Z,22.81
2017-05-27T02:00:47.092Z,22.83
2017-05-27T02:01:46.426Z,22.81
2017-05-27T02:02:46.968Z,22.8
2017-05-27T02:03:46.901Z,22.91
2017-05-27T02:04:46.840Z,22.84
2017-05-27T02:05:46.778Z,22.8
2017-05-27T02:06:46.713Z,22.81
2017-05-27T02:07:46.648Z,22.85
2017-05-27T02:08:46.288Z,22.9
2017-05-27T02:09:46.535Z,22.84
2017-05-27T02:10:46.463Z,22.93
2017-05-27T02:11:46.126Z,22.9
2017-05-27T02:12:46.037Z,22.9
2017-05-27T02:13:45.972Z,22.78
2017-05-27T02:14:46.211Z,22.93
2017-05-27T02:15:46.146Z,22.9
2017-05-27T02:16:46.083Z,22.91
2017-05-27T02:17:46.023Z,22.85
2017-05-27T02:18:45.958Z,22.94
2017-05-27T02:19:45.909Z,22.88
2017-05-27T02:20:45.833Z,22.93
2017-05-27T02:21:45.776Z,22.87
2017-05-27T02:22:45.708Z,22.84
2017-05-27T02:23:45.643Z,22.83
2017-05-27T02:24:45.581Z,22.83
2017-05-27T02:25:45.518Z,22.88
2017-05-27T02:26:45.455Z,22.93
2017-05-27T02:27:45.390Z,22.83
2017-05-27T02:28:45.329Z,22.85
2017-05-27T02:29:45.270Z,22.87
2017-05-27T02:30:44.902Z,22.78
2017-05-27T02:31:44.840Z,22.88
2017-05-27T02:32:45.079Z,22.87
2017-05-27T02:33:44.715Z,22.9
2017-05-27T02:34:44.953Z,22.85
2017-05-27T02:35:44.889Z,22.93
2017-05-27T02:36:44.828Z,22.87
2017-05-27T02:37:44.766Z,22.93
2017-05-27T02:38:44.705Z,22.83
2017-05-27T02:39:44.638Z,22.81
2017-05-27T02:40:44.276Z,22.93
2017-05-27T02:41:44.513Z,22.93
2017-05-27T02:42:44.451Z,22.83
2017-05-27T02:43:44.386Z,22.93
2017-05-27T02:44:44.342Z,22.83
2017-05-27T02:45:44.279Z,22.85
2017-05-27T02:46:44.196Z,22.93
2017-05-27T02:47:44.136Z,22.83
2017-05-27T02:48:44.077Z,22.81
2017-05-27T02:49:44.007Z,22.9
2017-05-27T02:50:43.946Z,22.85
2017-05-27T02:51:43.882Z,22.91
2017-05-27T02:52:43.820Z,22.94
2017-05-27T02:53:43.454Z,22.87
2017-05-27T02:54:43.691Z,22.93
2017-05-27T02:55:43.630Z,22.85
2017-05-27T02:56:43.568Z,22.98
2017-05-27T02:57:43.707Z,22.96
2017-05-27T02:58:43.445Z,22.94
2017-05-27T02:59:43.079Z,22.8
2017-05-27T03:00:43.314Z,22.93
2017-05-27T03:01:43.253Z,22.93
2017-05-27T03:02:43.190Z,22.94
2017-05-27T03:03:43.128Z,22.8
2017-05-27T03:04:43.065Z,22.91
2017-05-27T03:05:42.704Z,22.91
2017-05-27T03:06:42.940Z,22.9
2017-05-27T03:07:42.878Z,22.96
2017-05-27T03:08:42.821Z,22.88
2017-05-27T03:09:42.752Z,22.9
2017-05-27T03:10:42.688Z,22.96
2017-05-27T03:11:42.326Z,22.93
2017-05-27T03:12:42.563Z,22.83
2017-05-27T03:13:42.200Z,22.93
2017-05-27T03:14:42.435Z,22.96
2017-05-27T03:15:42.375Z,22.94
2017-05-27T03:16:42.311Z,22.91
2017-05-27T03:17:42.247Z,22.94
2017-05-27T03:18:42.183Z,22.85
2017-05-27T03:19:42.126Z,22.9
2017-05-27T03:20:42.060Z,22.94
2017-05-27T03:21:41.994Z,22.9
2017-05-27T03:22:41.932Z,22.94
2017-05-27T03:23:41.868Z,22.9
2017-05-27T03:24:41.814Z,22.91
2017-05-27T03:25:41.747Z,22.91
2017-05-27T03:26:41.682Z,22.91
2017-05-27T03:27:41.625Z,22.87
2017-05-27T03:28:41.555Z,22.98
2017-05-27T03:29:41.492Z,22.98
2017-05-27T03:30:41.430Z,22.9
2017-05-27T03:31:41.072Z,22.88
2017-05-27T03:32:40.709Z,22.87
2017-05-27T03:33:41.243Z,22.94
2017-05-27T03:34:41.191Z,22.9
2017-05-27T03:35:41.121Z,22.93
2017-05-27T03:36:41.055Z,22.94
2017-05-27T03:37:41.008Z,22.93
2017-05-27T03:38:40.630Z,22.93
2017-05-27T03:39:40.862Z,22.94
2017-05-27T03:40:40.502Z,22.91
2017-05-27T03:41:40.748Z,22.88
2017-05-27T03:42:40.677Z,22.88
2017-05-27T03:43:40.613Z,22.99
2017-05-27T03:44:40.550Z,22.9
2017-05-27T03:45:40.489Z,22.94
2017-05-27T03:46:40.429Z,23
2017-05-27T03:47:40.365Z,22.94
2017-05-27T03:48:40.301Z,23.03
2017-05-27T03:49:40.237Z,22.94
2017-05-27T03:50:40.173Z,22.96
2017-05-27T03:51:40.111Z,22.98
2017-05-27T03:52:40.051Z,22.98
2017-05-27T03:53:39.986Z,22.98
2017-05-27T03:54:39.627Z,23
2017-05-27T03:55:39.860Z,23.03
2017-05-27T03:56:39.502Z,22.98
2017-05-27T03:57:39.736Z,23
2017-05-27T03:58:39.672Z,23.03
2017-05-27T03:59:39.609Z,23
2017-05-27T04:00:39.547Z,23
2017-05-27T04:01:39.484Z,22.98
2017-05-27T04:02:39.483Z,22.99
2017-05-27T04:03:39.366Z,22.98
2017-05-27T04:04:39.298Z,23
2017-05-27T04:05:39.231Z,22.99
2017-05-27T04:06:39.170Z,22.99
2017-05-27T04:07:39.104Z,23.05
2017-05-27T04:08:39.048Z,22.88
2017-05-27T04:09:38.397Z,23
2017-05-27T04:10:38.919Z,23
2017-05-27T04:11:38.854Z,22.98
2017-05-27T04:12:38.492Z,22.98
2017-05-27T04:13:38.471Z,22.94
2017-05-27T04:14:38.668Z,22.93
2017-05-27T04:15:38.605Z,23
2017-05-27T04:16:38.540Z,22.94
2017-05-27T04:17:38.181Z,23
2017-05-27T04:18:38.114Z,22.91
2017-05-27T04:19:38.350Z,22.94
2017-05-27T04:20:38.288Z,22.96
2017-05-27T04:21:38.224Z,22.94
2017-05-27T04:22:37.563Z,22.91
2017-05-27T04:23:38.103Z,22.93
2017-05-27T04:24:38.036Z,22.96
2017-05-27T04:25:37.978Z,22.91
2017-05-27T04:26:37.913Z,22.87
2017-05-27T04:27:37.554Z,22.94
2017-05-27T04:28:37.785Z,22.88
2017-05-27T04:29:37.723Z,22.96
2017-05-27T04:30:37.659Z,22.96
2017-05-27T04:31:37.598Z,22.91
2017-05-27T04:32:37.233Z,22.9
2017-05-27T04:33:37.478Z,22.85
2017-05-27T04:34:37.410Z,22.87
2017-05-27T04:35:37.048Z,22.96
2017-05-27T04:36:36.985Z,22.87
2017-05-27T04:37:37.220Z,22.91
2017-05-27T04:38:36.856Z,22.87
2017-05-27T04:39:36.793Z,22.91
2017-05-27T04:40:37.032Z,22.93
2017-05-27T04:41:36.969Z,22.81
2017-05-27T04:42:36.606Z,22.9
2017-05-27T04:43:36.545Z,22.96
2017-05-27T04:44:36.778Z,22.93
2017-05-27T04:45:36.713Z,22.91
2017-05-27T04:46:36.653Z,22.88
2017-05-27T04:47:36.291Z,22.88
2017-05-27T04:48:36.737Z,22.84
2017-05-27T04:49:36.465Z,22.88
2017-05-27T04:50:36.398Z,22.9
2017-05-27T04:51:36.337Z,22.84
2017-05-27T04:52:36.276Z,22.91
2017-05-27T04:53:36.215Z,22.88
2017-05-27T04:54:36.149Z,22.76
2017-05-27T04:55:36.087Z,22.8
2017-05-27T04:56:36.027Z,22.91
2017-05-27T04:57:35.971Z,22.91
2017-05-27T04:58:35.899Z,22.81
2017-05-27T04:59:35.840Z,22.8
2017-05-27T05:00:35.780Z,22.85
2017-05-27T05:01:35.710Z,22.9
2017-05-27T05:02:35.647Z,22.84
2017-05-27T05:03:35.582Z,22.83
2017-05-27T05:04:35.526Z,22.81
2017-05-27T05:05:35.459Z,22.81
2017-05-27T05:06:35.395Z,22.83
2017-05-27T05:07:35.329Z,22.91
2017-05-27T05:08:35.267Z,22.88
2017-05-27T05:09:35.205Z,22.85
2017-05-27T05:10:35.142Z,22.83
2017-05-27T05:11:35.080Z,22.94
2017-05-27T05:12:35.020Z,22.93
2017-05-27T05:13:34.355Z,22.78
2017-05-27T05:14:34.894Z,22.85
2017-05-27T05:15:34.229Z,22.8
2017-05-27T05:16:34.765Z,22.83
2017-05-27T05:17:34.102Z,22.93
2017-05-27T05:18:34.639Z,22.94
2017-05-27T05:19:34.277Z,22.93
2017-05-27T05:20:34.211Z,22.83
2017-05-27T05:21:34.148Z,22.8
2017-05-27T05:22:34.084Z,22.83
2017-05-27T05:23:34.331Z,22.91
2017-05-27T05:24:34.260Z,22.84
2017-05-27T05:25:33.895Z,22.93
2017-05-27T05:26:34.136Z,22.76
2017-05-27T05:27:33.771Z,22.91
2017-05-27T05:28:33.711Z,22.83
2017-05-27T05:29:33.947Z,22.88
2017-05-27T05:30:33.883Z,22.81
2017-05-27T05:31:33.819Z,22.81
2017-05-27T05:32:33.758Z,22.81
2017-05-27T05:33:33.692Z,22.8
2017-05-27T05:34:33.638Z,22.83
2017-05-27T05:35:33.565Z,22.9
2017-05-27T05:36:33.508Z,22.8
2017-05-27T05:37:33.140Z,22.81
2017-05-27T05:38:33.381Z,22.83
2017-05-27T05:39:33.018Z,22.8
2017-05-27T05:40:32.949Z,22.83
2017-05-27T05:41:32.590Z,22.91
2017-05-27T05:42:33.122Z,22.76
2017-05-27T05:43:33.064Z,22.84
2017-05-27T05:44:32.702Z,22.83
2017-05-27T05:45:32.938Z,22.76
2017-05-27T05:46:32.574Z,22.78
2017-05-27T05:47:32.510Z,22.78
2017-05-27T05:48:32.462Z,22.9
2017-05-27T05:49:32.398Z,22.8
2017-05-27T05:50:32.322Z,22.8
2017-05-27T05:51:31.957Z,22.78
2017-05-27T05:52:32.494Z,22.88
2017-05-27T05:53:32.432Z,22.85
2017-05-27T05:54:32.069Z,22.85
2017-05-27T05:55:32.303Z,22.84
2017-05-27T05:56:32.242Z,22.85
2017-05-27T05:57:32.176Z,22.8
2017-05-27T05:58:32.116Z,22.93
2017-05-27T05:59:32.053Z,22.83
2017-05-27T06:00:31.991Z,22.88
2017-05-27T06:01:31.629Z,22.81
2017-05-27T06:02:31.861Z,22.9
2017-05-27T06:03:31.498Z,22.87
2017-05-27T06:04:31.738Z,22.84
2017-05-27T06:05:31.672Z,22.76
2017-05-27T06:06:31.612Z,22.84
2017-05-27T06:07:31.547Z,22.83
2017-05-27T06:08:31.185Z,22.83
2017-05-27T06:09:31.422Z,22.83
2017-05-27T06:10:31.057Z,22.88
2017-05-27T06:11:31.296Z,22.81
2017-05-27T06:12:31.232Z,22.85
2017-05-27T06:13:30.872Z,22.81
2017-05-27T06:14:30.810Z,22.91
2017-05-27T06:15:30.745Z,22.83
2017-05-27T06:16:30.983Z,22.84
2017-05-27T06:17:30.917Z,22.76
2017-05-27T06:18:30.856Z,22.8
2017-05-27T06:19:30.794Z,22.88
2017-05-27T06:20:30.428Z,22.81
2017-05-27T06:21:30.401Z,22.78
2017-05-27T06:22:30.341Z,22.83
2017-05-27T06:23:30.243Z,22.8
2017-05-27T06:24:30.476Z,22.8
2017-05-27T06:25:30.115Z,22.8
2017-05-27T06:26:30.351Z,22.91
2017-05-27T06:27:30.290Z,22.85
2017-05-27T06:28:30.225Z,22.8
2017-05-27T06:29:29.859Z,22.81
2017-05-27T06:30:29.499Z,22.81
2017-05-27T06:31:29.732Z,22.8
2017-05-27T06:32:29.969Z,22.83
2017-05-27T06:33:29.911Z,22.78
2017-05-27T06:34:29.846Z,22.8
2017-05-27T06:35:29.782Z,22.81
2017-05-27T06:36:29.719Z,22.83
2017-05-27T06:37:29.661Z,22.83
2017-05-27T06:38:29.604Z,22.81
2017-05-27T06:39:29.534Z,22.76
2017-05-27T06:40:29.473Z,22.83
2017-05-27T06:41:29.405Z,22.81
2017-05-27T06:42:29.340Z,22.8
2017-05-27T06:43:29.277Z,22.81
2017-05-27T06:44:29.222Z,22.81
2017-05-27T06:45:29.152Z,22.81
2017-05-27T06:46:29.089Z,22.91
2017-05-27T06:47:29.033Z,22.91
2017-05-27T06:48:28.964Z,22.81
2017-05-27T06:49:28.901Z,22.8
2017-05-27T06:50:28.837Z,22.83
2017-05-27T06:51:28.778Z,22.84
2017-05-27T06:52:28.711Z,22.8
2017-05-27T06:53:28.648Z,22.81
2017-05-27T06:54:28.587Z,22.84
2017-05-27T06:55:28.520Z,22.81
2017-05-27T06:56:28.461Z,22.83
2017-05-27T06:57:28.392Z,22.8
2017-05-27T06:58:28.332Z,22.93
2017-05-27T06:59:28.270Z,22.8
2017-05-27T07:00:28.203Z,22.84
2017-05-27T07:01:28.142Z,22.84
2017-05-27T07:02:28.080Z,22.81
2017-05-27T07:03:28.024Z,22.81
2017-05-27T07:04:27.656Z,22.8
2017-05-27T07:05:27.888Z,22.83
2017-05-27T07:06:27.833Z,22.78
2017-05-27T07:07:27.765Z,22.81
2017-05-27T07:08:27.403Z,22.9
2017-05-27T07:09:27.344Z,22.8
2017-05-27T07:10:27.576Z,22.84
2017-05-27T07:11:27.510Z,22.76
2017-05-27T07:12:27.150Z,22.8
2017-05-27T07:13:27.086Z,22.8
2017-05-27T07:14:27.323Z,22.84
2017-05-27T07:15:27.261Z,22.88
2017-05-27T07:16:27.198Z,22.81
2017-05-27T07:17:26.838Z,22.83
2017-05-27T07:18:27.074Z,22.83
2017-05-27T07:19:26.707Z,22.84
2017-05-27T07:20:26.956Z,22.84
2017-05-27T07:21:26.897Z,22.81
2017-05-27T07:22:26.822Z,22.81
2017-05-27T07:23:26.755Z,22.84
2017-05-27T07:24:26.392Z,22.83
2017-05-27T07:25:26.341Z,22.81
2017-05-27T07:26:26.267Z,22.84
2017-05-27T07:27:26.260Z,22.81
2017-05-27T07:28:26.440Z,22.83
2017-05-27T07:29:26.378Z,22.83
2017-05-27T07:30:26.315Z,22.83
2017-05-27T07:31:26.247Z,22.88
2017-05-27T07:32:26.188Z,22.85
2017-05-27T07:33:26.124Z,22.81
2017-05-27T07:34:26.060Z,22.87
2017-05-27T07:35:25.699Z,22.84
2017-05-27T07:36:25.635Z,22.81
2017-05-27T07:37:25.572Z,22.87
2017-05-27T07:38:25.807Z,22.84
2017-05-27T07:39:25.761Z,22.83
2017-05-27T07:40:25.382Z,22.84
2017-05-27T07:41:25.620Z,22.83
2017-05-27T07:42:25.554Z,22.81
2017-05-27T07:43:25.496Z,22.81
2017-05-27T07:44:25.430Z,22.8
2017-05-27T07:45:25.368Z,22.76
2017-05-27T07:46:25.304Z,22.78
2017-05-27T07:47:25.238Z,22.75
2017-05-27T07:48:25.176Z,22.78
2017-05-27T07:49:25.113Z,22.81
2017-05-27T07:50:24.749Z,22.72
2017-05-27T07:51:24.987Z,22.73
2017-05-27T07:52:24.622Z,22.72
2017-05-27T07:53:24.559Z,22.84
2017-05-27T07:54:24.806Z,22.84
2017-05-27T07:55:24.740Z,22.7
2017-05-27T07:56:24.671Z,22.75
2017-05-27T07:57:24.620Z,22.84
2017-05-27T07:58:24.248Z,22.73
2017-05-27T07:59:24.495Z,22.84
2017-05-27T08:00:24.122Z,22.73
2017-05-27T08:01:24.055Z,22.78
2017-05-27T08:02:24.293Z,22.8
2017-05-27T08:03:24.291Z,22.78
2017-05-27T08:04:23.870Z,22.81
2017-05-27T08:05:24.116Z,22.75
2017-05-27T08:06:24.038Z,22.73
2017-05-27T08:07:23.975Z,22.73
2017-05-27T08:08:23.915Z,22.76
2017-05-27T08:09:23.849Z,22.76
2017-05-27T08:10:23.846Z,22.78
2017-05-27T08:11:23.724Z,22.78
2017-05-27T08:12:23.360Z,22.76
2017-05-27T08:13:23.298Z,22.75
2017-05-27T08:14:23.603Z,22.72
2017-05-27T08:15:23.474Z,22.7
2017-05-27T08:16:23.409Z,22.69
2017-05-27T08:17:23.344Z,22.73
2017-05-27T08:18:23.282Z,22.69
2017-05-27T08:19:22.918Z,22.7
2017-05-27T08:20:22.858Z,22.72
2017-05-27T08:21:22.791Z,22.75
2017-05-27T08:22:23.031Z,22.7
2017-05-27T08:23:22.987Z,22.72
2017-05-27T08:24:22.903Z,22.69
2017-05-27T08:25:22.890Z,22.73
2017-05-27T08:26:22.779Z,22.7
2017-05-27T08:27:22.715Z,22.63
2017-05-27T08:28:22.652Z,22.63
2017-05-27T08:29:22.586Z,22.63
2017-05-27T08:30:22.525Z,22.66
2017-05-27T08:31:22.163Z,22.7
2017-05-27T08:32:22.398Z,22.72
2017-05-27T08:33:22.040Z,22.66
2017-05-27T08:34:21.972Z,22.63
2017-05-27T08:35:22.210Z,22.65
2017-05-27T08:36:22.145Z,22.7
2017-05-27T08:37:22.092Z,22.7
2017-05-27T08:38:21.719Z,22.69
2017-05-27T08:39:21.956Z,22.63
2017-05-27T08:40:21.293Z,22.62
2017-05-27T08:41:21.231Z,22.68
2017-05-27T08:42:21.770Z,22.66
2017-05-27T08:43:21.406Z,22.73
2017-05-27T08:44:21.638Z,22.62
2017-05-27T08:45:21.277Z,22.65
2017-05-27T08:46:21.515Z,22.65
2017-05-27T08:47:21.150Z,22.69
2017-05-27T08:48:21.390Z,22.66
2017-05-27T08:49:21.322Z,22.66
2017-05-27T08:50:20.958Z,22.69
2017-05-27T08:51:20.898Z,22.66
2017-05-27T08:52:20.833Z,22.63
2017-05-27T08:53:21.070Z,22.57
2017-05-27T08:54:21.080Z,22.63
2017-05-27T08:55:20.944Z,22.63
2017-05-27T08:56:20.884Z,22.55
2017-05-27T08:57:20.812Z,22.57
2017-05-27T08:58:20.754Z,22.55
2017-05-27T08:59:20.693Z,22.59
2017-05-27T09:00:20.330Z,22.51
2017-05-27T09:01:20.564Z,22.51
2017-05-27T09:02:20.499Z,22.53
2017-05-27T09:03:20.137Z,22.6
2017-05-27T09:04:20.373Z,22.55
2017-05-27T09:05:20.008Z,22.55
2017-05-27T09:06:20.247Z,22.51
2017-05-27T09:07:20.182Z,22.55
2017-05-27T09:08:20.122Z,22.55
2017-05-27T09:09:20.058Z,22.59
2017-05-27T09:10:19.992Z,22.5
2017-05-27T09:11:19.928Z,22.6
2017-05-27T09:12:19.863Z,22.65
2017-05-27T09:13:19.842Z,22.57
2017-05-27T09:14:19.438Z,22.6
2017-05-27T09:15:19.677Z,22.57
2017-05-27T09:16:19.311Z,22.62
2017-05-27T09:17:19.556Z,22.59
2017-05-27T09:18:19.487Z,22.62
2017-05-27T09:19:19.422Z,22.53
2017-05-27T09:20:19.359Z,22.55
2017-05-27T09:21:19.295Z,22.53
2017-05-27T09:22:19.230Z,22.54
2017-05-27T09:23:19.169Z,22.59
2017-05-27T09:24:18.504Z,22.59
2017-05-27T09:25:18.452Z,22.57
2017-05-27T09:26:18.680Z,22.59
2017-05-27T09:27:18.915Z,22.54
2017-05-27T09:28:18.550Z,22.57
2017-05-27T09:29:18.491Z,22.55
2017-05-27T09:30:18.425Z,22.6
2017-05-27T09:31:18.361Z,22.62
2017-05-27T09:32:18.297Z,22.55
2017-05-27T09:33:18.557Z,22.57
2017-05-27T09:34:18.675Z,22.57
2017-05-27T09:35:18.406Z,22.53
2017-05-27T09:36:18.343Z,22.55
2017-05-27T09:37:18.281Z,22.51
2017-05-27T09:38:18.215Z,22.48
2017-05-27T09:39:18.152Z,22.51
2017-05-27T09:40:18.088Z,22.59
2017-05-27T09:41:18.023Z,22.48
2017-05-27T09:42:17.663Z,22.55
2017-05-27T09:43:17.899Z,22.59
2017-05-27T09:44:17.539Z,22.51
2017-05-27T09:45:17.772Z,22.53
2017-05-27T09:46:17.706Z,22.54
2017-05-27T09:47:17.645Z,22.53
2017-05-27T09:48:17.281Z,22.55
2017-05-27T09:49:17.218Z,22.57
2017-05-27T09:50:17.452Z,22.57
2017-05-27T09:51:17.391Z,22.57
2017-05-27T09:52:17.026Z,22.51
2017-05-27T09:53:16.962Z,22.47
2017-05-27T09:54:17.198Z,22.53
2017-05-27T09:55:16.841Z,22.57
2017-05-27T09:56:16.474Z,22.55
2017-05-27T09:57:16.707Z,22.59
2017-05-27T09:58:16.653Z,22.53
2017-05-27T09:59:16.282Z,22.57
2017-05-27T10:00:16.537Z,22.59
2017-05-27T10:01:16.459Z,22.59
2017-05-27T10:02:16.093Z,22.59
2017-05-27T10:03:16.355Z,22.53
2017-05-27T10:04:16.283Z,22.6
2017-05-27T10:05:16.200Z,22.54
2017-05-27T10:06:16.181Z,22.57
2017-05-27T10:07:15.781Z,22.62
2017-05-27T10:08:16.022Z,22.59
2017-05-27T10:09:16.247Z,22.57
2017-05-27T10:10:16.215Z,22.59
2017-05-27T10:11:16.323Z,22.59
2017-05-27T10:12:16.319Z,22.54
2017-05-27T10:13:15.696Z,22.57
2017-05-27T10:14:15.935Z,22.59
2017-05-27T10:15:15.579Z,22.6
2017-05-27T10:16:15.707Z,22.66
2017-05-27T10:17:15.739Z,22.66
2017-05-27T10:18:15.374Z,22.62
2017-05-27T10:19:15.618Z,22.59
2017-05-27T10:20:15.548Z,22.66
2017-05-27T10:21:15.184Z,22.57
2017-05-27T10:22:15.422Z,22.54
2017-05-27T10:23:15.361Z,22.55
2017-05-27T10:24:15.294Z,22.51
2017-05-27T10:25:15.232Z,22.57
2017-05-27T10:26:14.869Z,22.6
2017-05-27T10:27:15.114Z,22.57
2017-05-27T10:28:15.043Z,22.63
2017-05-27T10:29:14.974Z,22.69
2017-05-27T10:30:14.913Z,22.66
2017-05-27T10:31:14.850Z,22.66
2017-05-27T10:32:14.789Z,22.69
2017-05-27T10:33:14.422Z,22.66
2017-05-27T10:34:14.358Z,22.69
2017-05-27T10:35:14.301Z,22.62
2017-05-27T10:36:14.530Z,22.62
2017-05-27T10:37:14.469Z,22.63
2017-05-27T10:38:14.404Z,22.65
2017-05-27T10:39:14.343Z,22.65
2017-05-27T10:40:14.279Z,22.66
2017-05-27T10:41:14.216Z,22.65
2017-05-27T10:42:13.853Z,22.68
2017-05-27T10:43:13.785Z,22.62
2017-05-27T10:44:14.027Z,22.63
2017-05-27T10:45:13.961Z,22.73
2017-05-27T10:46:13.904Z,22.66
2017-05-27T10:47:13.540Z,22.72
2017-05-27T10:48:13.469Z,22.68
2017-05-27T10:49:13.709Z,22.69
2017-05-27T10:50:13.344Z,22.75
2017-05-27T10:51:13.580Z,22.78
2017-05-27T10:52:13.527Z,22.66
2017-05-27T10:53:13.453Z,22.69
2017-05-27T10:54:13.387Z,22.69
2017-05-27T10:55:13.324Z,22.73
2017-05-27T10:56:13.286Z,22.73
2017-05-27T10:57:13.213Z,22.72
2017-05-27T10:58:13.137Z,22.68
2017-05-27T10:59:13.072Z,22.75
2017-05-27T11:00:13.011Z,22.7
2017-05-27T11:01:12.348Z,22.72
2017-05-27T11:02:12.581Z,22.72
2017-05-27T11:03:12.819Z,22.7
2017-05-27T11:04:12.155Z,22.72
2017-05-27T11:05:12.398Z,22.7
2017-05-27T11:06:12.330Z,22.76
2017-05-27T11:07:12.267Z,22.69
2017-05-27T11:08:12.202Z,22.73
2017-05-27T11:09:12.442Z,22.78
2017-05-27T11:10:12.375Z,22.75
2017-05-27T11:11:12.015Z,22.66
2017-05-27T11:12:11.952Z,22.65
2017-05-27T11:13:12.183Z,22.7
2017-05-27T11:14:11.820Z,22.73
2017-05-27T11:15:11.758Z,22.7
2017-05-27T11:16:11.394Z,22.7
2017-05-27T11:17:11.930Z,22.7
2017-05-27T11:18:11.567Z,22.75
2017-05-27T11:19:11.804Z,22.73
2017-05-27T11:20:11.746Z,22.7
2017-05-27T11:21:11.678Z,22.69
2017-05-27T11:22:11.316Z,22.7
2017-05-27T11:23:11.554Z,22.69
2017-05-27T11:24:11.489Z,22.75
2017-05-27T11:25:11.425Z,22.73
2017-05-27T11:26:11.371Z,22.69
2017-05-27T11:27:11.298Z,22.76
2017-05-27T11:28:10.936Z,22.76
2017-05-27T11:29:10.879Z,22.73
2017-05-27T11:30:11.120Z,22.76
2017-05-27T11:31:11.051Z,22.7
2017-05-27T11:32:10.983Z,22.75
2017-05-27T11:33:10.618Z,22.73
2017-05-27T11:34:10.257Z,22.78
2017-05-27T11:35:10.743Z,22.68
2017-05-27T11:36:10.126Z,22.7
2017-05-27T11:37:10.666Z,22.73
2017-05-27T11:38:10.598Z,22.75
2017-05-27T11:39:10.239Z,22.78
2017-05-27T11:40:10.771Z,22.7
2017-05-27T11:41:10.412Z,22.76
2017-05-27T11:42:10.045Z,22.75
2017-05-27T11:43:10.283Z,22.7
2017-05-27T11:44:10.218Z,22.72
2017-05-27T11:45:09.855Z,22.7
2017-05-27T11:46:09.792Z,22.76
2017-05-27T11:47:09.729Z,22.75
2017-05-27T11:48:09.966Z,22.69
2017-05-27T11:49:09.902Z,22.75
2017-05-27T11:50:09.242Z,22.73
2017-05-27T11:51:09.779Z,22.76
2017-05-27T11:52:09.714Z,22.76
2017-05-27T11:53:09.646Z,22.75
2017-05-27T11:54:09.584Z,22.73
2017-05-27T11:55:09.524Z,22.66
2017-05-27T11:56:09.489Z,22.75
2017-05-27T11:57:09.399Z,22.73
2017-05-27T11:58:09.332Z,22.72
2017-05-27T11:59:09.268Z,22.73
2017-05-27T12:00:09.204Z,22.75
2017-05-27T12:01:08.842Z,22.72
2017-05-27T12:02:08.852Z,22.7
2017-05-27T12:03:09.012Z,22.7
2017-05-27T12:04:08.956Z,22.68
2017-05-27T12:05:08.987Z,22.76
2017-05-27T12:06:08.823Z,22.69
2017-05-27T12:07:08.809Z,22.72
2017-05-27T12:08:08.397Z,22.73
2017-05-27T12:09:08.334Z,22.76
2017-05-27T12:10:08.271Z,22.73
2017-05-27T12:11:08.210Z,22.78
2017-05-27T12:12:08.443Z,22.6
2017-05-27T12:13:08.082Z,22.7
2017-05-27T12:14:08.317Z,22.65
2017-05-27T12:15:08.258Z,22.62
2017-05-27T12:16:08.198Z,22.65
2017-05-27T12:17:08.126Z,22.7
2017-05-27T12:18:07.763Z,22.69
2017-05-27T12:19:08.000Z,22.73
2017-05-27T12:20:07.638Z,22.7
2017-05-27T12:21:07.875Z,22.72
2017-05-27T12:22:07.807Z,22.69
2017-05-27T12:23:07.744Z,22.7
2017-05-27T12:24:07.680Z,22.78
2017-05-27T12:25:07.424Z,22.72
2017-05-27T12:26:07.554Z,22.72
2017-05-27T12:27:07.193Z,22.68
2017-05-27T12:28:07.428Z,22.66
2017-05-27T12:29:07.365Z,22.59
2017-05-27T12:30:07.308Z,22.63
2017-05-27T12:31:07.238Z,22.7
2017-05-27T12:32:07.178Z,22.66
2017-05-27T12:33:07.109Z,22.72
2017-05-27T12:34:06.750Z,22.72
2017-05-27T12:35:06.984Z,22.73
2017-05-27T12:36:06.922Z,22.66
2017-05-27T12:37:06.558Z,22.73
2017-05-27T12:38:06.493Z,22.72
2017-05-27T12:39:06.731Z,22.69
2017-05-27T12:40:06.670Z,22.78
2017-05-27T12:41:06.333Z,22.7
2017-05-27T12:42:05.945Z,22.72
2017-05-27T12:43:06.538Z,22.72
2017-05-27T12:44:06.423Z,22.63
2017-05-27T12:45:06.350Z,22.63
2017-05-27T12:46:06.287Z,22.68
2017-05-27T12:47:06.429Z,22.75
2017-05-27T12:48:05.857Z,22.7
2017-05-27T12:49:06.098Z,22.63
2017-05-27T12:50:06.035Z,22.69
2017-05-27T12:51:05.673Z,22.7
2017-05-27T12:52:05.908Z,22.62
2017-05-27T12:53:05.844Z,22.62
2017-05-27T12:54:05.785Z,22.68
2017-05-27T12:55:05.666Z,22.75
2017-05-27T12:56:05.054Z,22.6
2017-05-27T12:57:04.991Z,22.7
2017-05-27T12:58:04.940Z,22.69